createdAt,value
2022-08-03T00:00:36.089Z,3.20
2022-08-03T00:03:04.962Z,3.10
2022-08-03T00:05:34.230Z,2.78
2022-08-03T00:08:03.585Z,2.60
2022-08-03T00:10:32.317Z,2.88
2022-08-03T00:13:00.270Z,2.95
2022-08-03T00:15:28.786Z,2.78
2022-08-03T00:17:56.699Z,2.50
2022-08-03T00:20:25.177Z,2.83
2022-08-03T00:22:53.624Z,3.13
2022-08-03T00:25:23.076Z,3.30
2022-08-03T00:27:51.178Z,3.20
2022-08-03T00:30:19.981Z,3.70
2022-08-03T00:32:48.715Z,2.50
2022-08-03T00:35:32.488Z,2.63
2022-08-03T00:38:06.402Z,3.23
2022-08-03T00:40:36.837Z,2.67
2022-08-03T00:43:06.264Z,2.55
2022-08-03T00:45:36.629Z,3.10
2022-08-03T00:48:06.708Z,3.27
2022-08-03T00:50:55.333Z,2.53
2022-08-03T00:53:23.061Z,2.90
2022-08-03T00:55:52.503Z,2.90
2022-08-03T00:58:20.505Z,3.30
2022-08-03T01:00:49.400Z,3.90
2022-08-03T01:03:18.209Z,3.33
2022-08-03T01:05:52.508Z,2.95
2022-08-03T01:08:24.667Z,2.58
2022-08-03T01:11:04.405Z,3.00
2022-08-03T01:14:01.262Z,2.97
2022-08-03T01:16:35.816Z,3.35
2022-08-03T01:19:17.372Z,3.28
2022-08-03T01:21:53.509Z,3.55
2022-08-03T01:24:34.387Z,3.58
2022-08-03T01:27:12.914Z,3.50
2022-08-03T01:30:06.241Z,3.40
2022-08-03T01:32:59.231Z,3.20
2022-08-03T01:35:38.397Z,3.78
2022-08-03T01:38:10.432Z,3.57
2022-08-03T01:40:39.017Z,3.85
2022-08-03T01:43:08.004Z,3.60
2022-08-03T01:45:37.863Z,3.85
2022-08-03T01:48:06.429Z,4.60
2022-08-03T01:52:02.859Z,3.28
2022-08-03T01:54:25.492Z,4.43
2022-08-03T01:56:55.683Z,3.90
2022-08-03T01:59:24.296Z,4.70
2022-08-03T02:02:15.664Z,4.15
2022-08-03T02:04:46.897Z,5.53
2022-08-03T02:07:15.794Z,4.13
2022-08-03T02:09:46.421Z,4.10
2022-08-03T02:12:15.868Z,4.90
2022-08-03T02:14:45.844Z,4.80
2022-08-03T02:17:15.955Z,5.22
2022-08-03T02:19:44.554Z,5.03
2022-08-03T02:22:14.757Z,4.70
2022-08-03T02:24:49.273Z,4.83
2022-08-03T02:27:21.720Z,5.43
2022-08-03T02:29:52.313Z,5.15
2022-08-03T02:32:29.130Z,5.38
2022-08-03T02:34:59.320Z,6.03
2022-08-03T02:37:29.583Z,5.60
2022-08-03T02:40:01.059Z,5.75
2022-08-03T02:42:30.441Z,5.67
2022-08-03T02:45:01.196Z,5.32
2022-08-03T02:47:54.017Z,5.45
2022-08-03T02:50:20.266Z,5.63
2022-08-03T02:52:48.722Z,5.57
2022-08-03T02:55:17.864Z,5.18
2022-08-03T02:57:47.905Z,5.00
2022-08-03T03:00:19.385Z,5.45
2022-08-03T03:02:58.506Z,5.72
2022-08-03T03:05:52.375Z,5.35
2022-08-03T03:08:25.938Z,5.32
2022-08-03T03:10:56.568Z,5.50
2022-08-03T03:13:25.129Z,5.53
2022-08-03T03:15:54.279Z,6.33
2022-08-03T03:18:25.246Z,5.10
2022-08-03T03:24:34.072Z,5.47
2022-08-03T03:27:02.355Z,5.50
2022-08-03T03:29:30.669Z,5.53
2022-08-03T03:32:09.275Z,5.63
2022-08-03T03:34:39.024Z,6.10
2022-08-03T03:37:07.471Z,6.15
2022-08-03T03:39:36.399Z,6.43
2022-08-03T03:42:06.051Z,6.35
2022-08-03T03:44:34.653Z,5.60
2022-08-03T03:47:04.210Z,7.53
2022-08-03T03:49:32.793Z,6.32
2022-08-03T03:52:08.281Z,7.20
2022-08-03T03:54:42.628Z,6.85
2022-08-03T03:57:13.020Z,6.63
2022-08-03T03:59:44.964Z,6.45
2022-08-03T04:02:13.294Z,6.47
2022-08-03T04:04:58.556Z,6.95
2022-08-03T04:07:45.812Z,7.38
2022-08-03T04:10:41.784Z,7.07
2022-08-03T04:13:11.334Z,6.10
2022-08-03T04:15:41.452Z,6.20
2022-08-03T04:18:11.808Z,6.68
2022-08-03T04:20:42.305Z,6.35
2022-08-03T04:23:15.538Z,6.30
2022-08-03T04:25:44.287Z,6.15
2022-08-03T04:28:31.214Z,6.20
2022-08-03T04:31:01.323Z,5.93
2022-08-03T04:33:30.844Z,5.80
2022-08-03T04:36:01.638Z,5.40
2022-08-03T04:38:41.524Z,5.68
2022-08-03T04:41:10.291Z,5.70
2022-08-03T04:43:40.888Z,6.07
2022-08-03T04:46:21.965Z,5.53
2022-08-03T04:48:52.276Z,5.77
2022-08-03T04:51:20.214Z,5.50
2022-08-03T04:53:50.475Z,4.75
2022-08-03T04:56:19.260Z,5.82
2022-08-03T04:58:46.986Z,5.72
2022-08-03T05:01:16.153Z,6.38
2022-08-03T05:03:44.120Z,6.40
2022-08-03T05:06:12.016Z,6.30
2022-08-03T05:08:46.198Z,5.75
2022-08-03T05:11:16.878Z,6.05
2022-08-03T05:13:46.755Z,5.82
2022-08-03T05:16:15.943Z,6.10
2022-08-03T05:18:46.190Z,6.50
2022-08-03T05:21:16.751Z,6.38
2022-08-03T05:23:44.944Z,6.53
2022-08-03T05:26:12.897Z,6.18
2022-08-03T05:28:51.119Z,6.90
2022-08-03T05:31:20.347Z,6.20
2022-08-03T05:33:49.308Z,6.72
2022-08-03T05:36:17.373Z,6.30
2022-08-03T05:38:45.265Z,6.20
2022-08-03T05:41:22.906Z,6.00
2022-08-03T05:43:54.132Z,6.10
2022-08-03T05:46:22.511Z,6.00
2022-08-03T05:48:51.631Z,5.90
2022-08-03T05:51:20.317Z,6.00
2022-08-03T05:54:55.492Z,5.73
2022-08-03T05:57:24.823Z,5.53
2022-08-03T05:59:58.840Z,5.38
2022-08-03T06:02:26.973Z,4.90
2022-08-03T06:04:55.471Z,6.37
2022-08-03T06:07:23.318Z,5.28
2022-08-03T06:10:34.520Z,5.22
2022-08-03T06:12:41.148Z,5.30
2022-08-03T06:15:11.811Z,5.40
2022-08-03T06:17:50.251Z,5.20
2022-08-03T06:20:19.552Z,4.35
2022-08-03T06:22:51.386Z,4.88
2022-08-03T06:25:28.875Z,5.15
2022-08-03T06:27:59.869Z,4.97
2022-08-03T06:30:29.336Z,5.15
2022-08-03T06:32:57.041Z,4.35
2022-08-03T06:35:24.936Z,4.70
2022-08-03T06:37:53.113Z,4.95
2022-08-03T06:40:28.472Z,4.43
2022-08-03T06:42:56.847Z,4.45
2022-08-03T06:45:25.473Z,4.18
2022-08-03T06:48:05.248Z,4.70
2022-08-03T06:50:33.587Z,4.35
2022-08-03T06:53:03.783Z,4.00
2022-08-03T06:55:32.216Z,4.20
2022-08-03T06:58:03.495Z,3.60
2022-08-03T07:00:31.919Z,4.18
2022-08-03T07:03:00.746Z,3.92
2022-08-03T07:05:33.369Z,4.60
2022-08-03T07:08:03.097Z,5.68
2022-08-03T07:10:30.916Z,3.83
2022-08-03T07:12:58.673Z,3.75
2022-08-03T07:15:54.537Z,3.50
2022-08-03T07:18:16.314Z,3.75
2022-08-03T07:20:47.410Z,3.63
2022-08-03T07:23:18.913Z,3.25
2022-08-03T07:25:48.108Z,3.30
2022-08-03T07:29:17.448Z,3.38
2022-08-03T07:31:46.456Z,3.47
2022-08-03T07:34:14.383Z,3.30
2022-08-03T07:36:43.647Z,3.20
2022-08-03T07:39:16.656Z,2.80
2022-08-03T07:41:46.243Z,3.40
2022-08-03T07:44:16.681Z,2.70
2022-08-03T07:46:45.271Z,3.83
2022-08-03T07:49:13.276Z,3.33
2022-08-03T07:51:41.513Z,2.88
2022-08-03T07:54:11.207Z,2.60
2022-08-03T07:56:39.287Z,2.67
2022-08-03T07:59:07.355Z,2.80
2022-08-03T08:01:38.123Z,2.72
2022-08-03T08:04:06.254Z,2.80
2022-08-03T08:06:34.324Z,2.45
2022-08-03T08:09:02.417Z,2.45
2022-08-03T08:11:31.694Z,2.63
2022-08-03T08:14:02.721Z,2.53
2022-08-03T08:16:30.586Z,2.70
2022-08-03T08:18:59.131Z,2.50
2022-08-03T08:21:27.653Z,2.53
2022-08-03T08:24:18.313Z,2.40
2022-08-03T08:26:49.690Z,2.13
2022-08-03T08:29:18.262Z,2.58
2022-08-03T08:31:46.672Z,2.30
2022-08-03T08:34:14.561Z,2.25
2022-08-03T08:36:43.354Z,2.08
2022-08-03T08:39:11.222Z,2.30
2022-08-03T08:41:39.238Z,1.80
2022-08-03T08:44:16.080Z,2.05
2022-08-03T08:46:44.346Z,1.50
2022-08-03T08:49:13.861Z,2.03
2022-08-03T08:51:59.583Z,1.77
2022-08-03T08:54:30.539Z,1.90
2022-08-03T08:56:59.693Z,1.93
2022-08-03T08:59:48.964Z,2.03
2022-08-03T09:02:17.467Z,1.92
2022-08-03T09:04:48.751Z,2.17
2022-08-03T09:07:20.737Z,1.85
2022-08-03T09:10:10.627Z,2.07
2022-08-03T09:12:42.310Z,2.05
2022-08-03T09:15:23.811Z,1.93
2022-08-03T09:17:54.284Z,2.08
2022-08-03T09:20:23.808Z,2.10
2022-08-03T09:22:56.796Z,3.10
2022-08-03T09:25:29.577Z,2.03
2022-08-03T09:28:06.133Z,1.70
2022-08-03T09:30:35.941Z,2.05
2022-08-03T09:33:05.016Z,1.73
2022-08-03T09:35:53.110Z,1.98
2022-08-03T09:38:24.071Z,1.60
2022-08-03T09:40:59.016Z,1.70
2022-08-03T09:43:28.617Z,2.20
2022-08-03T09:46:05.710Z,2.10
2022-08-03T09:48:35.154Z,1.55
2022-08-03T09:51:13.013Z,1.73
2022-08-03T09:53:57.032Z,1.60
2022-08-03T09:56:40.100Z,1.73
2022-08-03T09:59:08.313Z,1.70
2022-08-03T10:01:39.523Z,1.80
2022-08-03T10:04:13.407Z,1.70
2022-08-03T10:06:41.436Z,1.43
2022-08-03T10:09:10.420Z,2.00
2022-08-03T10:11:41.733Z,1.70
2022-08-03T10:14:11.214Z,1.48
2022-08-03T10:16:41.523Z,1.97
2022-08-03T10:19:10.636Z,1.60
2022-08-03T10:21:40.263Z,1.90
2022-08-03T10:24:10.808Z,1.77
2022-08-03T10:26:49.940Z,1.65
2022-08-03T10:29:24.548Z,1.70
2022-08-03T10:31:58.007Z,1.90
2022-08-03T10:34:28.181Z,2.05
2022-08-03T10:36:59.892Z,1.80
2022-08-03T10:39:30.747Z,1.88
2022-08-03T10:42:00.018Z,2.10
2022-08-03T10:44:34.527Z,1.98
2022-08-03T10:47:04.726Z,1.70
2022-08-03T10:49:34.588Z,2.13
2022-08-03T10:52:13.331Z,1.70
2022-08-03T10:55:58.215Z,1.92
2022-08-03T10:58:57.086Z,2.00
2022-08-03T11:01:59.480Z,2.17
2022-08-03T11:04:31.008Z,1.90
2022-08-03T11:07:20.700Z,1.93
2022-08-03T11:09:51.729Z,2.03
2022-08-03T11:12:30.101Z,2.38
2022-08-03T11:15:00.526Z,2.13
2022-08-03T11:17:28.603Z,2.00
2022-08-03T11:19:58.611Z,2.30
2022-08-03T11:22:29.182Z,1.73
2022-08-03T11:25:02.437Z,2.30
2022-08-03T11:27:33.192Z,1.90
2022-08-03T11:30:05.669Z,1.98
2022-08-03T11:32:53.167Z,1.65
2022-08-03T11:35:27.573Z,2.28
2022-08-03T11:38:12.499Z,2.30
2022-08-03T11:40:45.432Z,1.65
2022-08-03T11:43:46.678Z,2.00
2022-08-03T11:46:28.657Z,1.70
2022-08-03T11:49:09.979Z,2.08
2022-08-03T11:51:41.282Z,1.85
2022-08-03T11:54:09.428Z,1.80
2022-08-03T11:56:48.107Z,1.98
2022-08-03T11:59:21.771Z,1.80
2022-08-03T12:01:50.446Z,1.80
2022-08-03T12:04:18.222Z,1.63
2022-08-03T12:07:01.168Z,2.00
2022-08-03T12:09:29.195Z,2.00
2022-08-03T12:12:00.513Z,2.10
2022-08-03T12:14:48.981Z,1.77
2022-08-03T12:17:19.256Z,1.83
2022-08-03T12:19:47.721Z,1.75
2022-08-03T12:22:18.063Z,1.77
2022-08-03T12:24:47.880Z,1.90
2022-08-03T12:27:24.676Z,1.95
2022-08-03T12:29:58.649Z,1.63
2022-08-03T12:32:27.567Z,1.63
2022-08-03T12:35:00.007Z,1.60
2022-08-03T12:37:30.192Z,1.70
2022-08-03T12:40:07.969Z,1.60
2022-08-03T12:42:40.018Z,1.55
2022-08-03T12:45:21.332Z,1.52
2022-08-03T12:47:54.166Z,1.60
2022-08-03T12:50:27.192Z,1.67
2022-08-03T12:52:57.046Z,1.20
2022-08-03T12:55:27.646Z,1.40
2022-08-03T12:57:55.438Z,1.95
2022-08-03T13:00:29.606Z,2.17
2022-08-03T13:03:39.206Z,1.80
2022-08-03T13:05:52.096Z,1.73
2022-08-03T13:08:22.361Z,3.17
2022-08-03T13:10:51.441Z,1.63
2022-08-03T13:13:22.399Z,1.77
2022-08-03T13:15:52.395Z,1.67
2022-08-03T13:18:21.046Z,2.20
2022-08-03T13:20:51.087Z,1.75
2022-08-03T13:23:36.590Z,1.90
2022-08-03T13:26:04.606Z,1.88
2022-08-03T13:28:32.517Z,1.80
2022-08-03T13:31:00.319Z,1.90
2022-08-03T13:33:28.728Z,1.83
2022-08-03T13:35:56.970Z,2.17
2022-08-03T13:38:27.212Z,2.13
2022-08-03T13:40:58.210Z,1.90
2022-08-03T13:43:26.310Z,2.55
2022-08-03T13:45:57.982Z,1.50
2022-08-03T13:48:37.318Z,1.20
2022-08-03T13:51:21.722Z,2.00
2022-08-03T13:53:52.390Z,1.45
2022-08-03T13:56:21.906Z,1.50
2022-08-03T13:58:49.980Z,1.67
2022-08-03T14:01:29.691Z,1.48
2022-08-03T14:04:05.969Z,1.70
2022-08-03T14:07:45.056Z,1.55
2022-08-03T14:10:15.155Z,1.40
2022-08-03T14:12:44.374Z,1.37
2022-08-03T14:15:13.260Z,1.20
2022-08-03T14:17:49.642Z,1.63
2022-08-03T14:20:37.758Z,0.95
2022-08-03T14:23:07.866Z,1.45
2022-08-03T14:25:44.313Z,1.63
2022-08-03T14:28:22.752Z,1.23
2022-08-03T14:30:51.171Z,1.02
2022-08-03T14:33:19.150Z,1.20
2022-08-03T14:35:48.126Z,1.27
2022-08-03T14:38:16.194Z,1.20
2022-08-03T14:40:44.850Z,1.35
2022-08-03T14:43:12.512Z,1.52
2022-08-03T14:45:42.616Z,1.30
2022-08-03T14:50:33.249Z,1.23
2022-08-03T14:51:00.615Z,1.17
2022-08-03T14:53:30.242Z,1.23
2022-08-03T14:56:00.063Z,1.23
2022-08-03T14:58:28.842Z,1.23
2022-08-03T15:01:00.023Z,0.93
2022-08-03T15:03:28.428Z,1.13
2022-08-03T15:05:58.273Z,1.23
2022-08-03T15:08:28.044Z,1.20
2022-08-03T15:10:56.705Z,0.95
2022-08-03T15:13:25.495Z,1.20
2022-08-03T15:15:53.705Z,1.17
2022-08-03T15:18:23.458Z,1.10
2022-08-03T15:20:52.320Z,1.10
2022-08-03T15:23:20.477Z,0.93
2022-08-03T15:26:28.246Z,0.95
2022-08-03T15:28:37.411Z,1.30
2022-08-03T15:31:05.826Z,1.07
2022-08-03T15:33:35.442Z,1.25
2022-08-03T15:36:04.076Z,0.97
2022-08-03T15:38:32.306Z,1.10
2022-08-03T15:41:00.194Z,1.10
2022-08-03T15:43:28.715Z,1.52
2022-08-03T15:48:46.448Z,1.15
2022-08-03T15:51:16.315Z,1.27
2022-08-03T15:53:45.441Z,0.93
2022-08-03T15:56:18.414Z,1.10
2022-08-03T15:59:04.173Z,0.95
2022-08-03T16:01:35.305Z,0.82
2022-08-03T16:04:04.866Z,0.90
2022-08-03T16:06:35.876Z,0.93
2022-08-03T16:09:05.727Z,1.00
2022-08-03T16:11:53.435Z,1.10
2022-08-03T16:14:34.693Z,0.88
2022-08-03T16:17:07.919Z,1.10
2022-08-03T16:19:41.065Z,0.80
2022-08-03T16:22:08.817Z,0.85
2022-08-03T16:24:37.843Z,0.95
2022-08-03T16:27:15.543Z,0.88
2022-08-03T16:29:56.311Z,1.50
2022-08-03T16:32:24.279Z,0.90
2022-08-03T16:34:54.502Z,1.00
2022-08-03T16:37:38.068Z,0.93
2022-08-03T16:40:19.127Z,0.97
2022-08-03T16:42:47.239Z,0.50
2022-08-03T16:45:15.292Z,1.10
2022-08-03T16:47:43.164Z,0.63
2022-08-03T16:50:19.725Z,0.88
2022-08-03T16:52:48.737Z,0.98
2022-08-03T16:55:53.543Z,0.82
2022-08-03T16:58:06.881Z,0.80
2022-08-03T17:00:41.590Z,0.90
2022-08-03T17:03:16.409Z,0.70
2022-08-03T17:05:50.897Z,1.13
2022-08-03T17:08:26.628Z,0.90
2022-08-03T17:10:57.309Z,0.80
2022-08-03T17:13:38.933Z,0.80
2022-08-03T17:16:09.900Z,0.75
2022-08-03T17:18:42.177Z,0.90
2022-08-03T17:21:16.998Z,1.40
2022-08-03T17:23:47.830Z,0.85
2022-08-03T17:26:22.102Z,0.80
2022-08-03T17:28:58.276Z,0.82
2022-08-03T17:31:31.914Z,1.00
2022-08-03T17:34:02.006Z,1.00
2022-08-03T17:37:03.155Z,1.90
2022-08-03T17:44:13.053Z,1.50
2022-08-03T17:45:55.225Z,1.50
2022-08-03T17:48:25.249Z,1.40
2022-08-03T17:50:55.022Z,1.50
2022-08-03T17:53:30.764Z,1.23
2022-08-03T17:56:38.571Z,1.73
2022-08-03T17:59:01.047Z,1.55
2022-08-03T18:02:04.429Z,1.73
2022-08-03T18:06:10.540Z,1.83
2022-08-03T18:08:33.197Z,2.03
2022-08-03T18:11:14.564Z,1.67
2022-08-03T18:13:53.348Z,2.50
2022-08-03T18:16:29.960Z,6.30
2022-08-03T18:19:09.571Z,8.68
2022-08-03T18:22:02.983Z,7.33
2022-08-03T18:24:35.906Z,14.90
2022-08-03T18:27:07.055Z,38.65
2022-08-03T18:29:36.993Z,109.13
2022-08-03T18:32:13.475Z,79.05
2022-08-03T18:34:54.011Z,24.13
2022-08-03T18:37:33.704Z,11.13
2022-08-03T18:40:25.113Z,6.32
2022-08-03T18:42:56.378Z,4.32
2022-08-03T18:45:56.116Z,4.20
2022-08-03T18:48:19.161Z,5.20
2022-08-03T18:50:51.592Z,2.42
2022-08-03T18:54:03.075Z,2.25
2022-08-03T18:56:22.436Z,2.10
2022-08-03T18:58:53.288Z,2.83
2022-08-03T19:02:01.011Z,3.30
2022-08-03T19:04:27.011Z,2.60
2022-08-03T19:07:03.655Z,3.17
2022-08-03T19:09:39.726Z,2.70
2022-08-03T19:12:32.396Z,2.08
2022-08-03T19:15:05.633Z,1.88
2022-08-03T19:17:42.918Z,2.53
2022-08-03T19:20:21.765Z,2.28
2022-08-03T19:22:51.848Z,1.90
2022-08-03T19:25:20.449Z,2.20
2022-08-03T19:28:08.385Z,1.83
2022-08-03T19:30:39.022Z,2.10
2022-08-03T19:33:09.514Z,1.83
2022-08-03T19:35:51.166Z,2.53
2022-08-03T19:38:28.594Z,1.90
2022-08-03T19:41:00.650Z,1.80
2022-08-03T19:43:53.013Z,2.40
2022-08-03T19:46:30.357Z,2.25
2022-08-03T19:49:02.765Z,1.80
2022-08-03T19:52:00.862Z,1.63
2022-08-03T19:54:29.666Z,2.10
2022-08-03T19:57:02.015Z,2.70
2022-08-03T19:59:49.592Z,2.13
2022-08-03T20:02:26.459Z,1.50
2022-08-03T20:04:55.802Z,2.13
2022-08-03T20:07:24.036Z,1.63
2022-08-03T20:09:54.623Z,2.35
2022-08-03T20:13:28.453Z,2.20
2022-08-03T20:15:57.611Z,1.67
2022-08-03T20:18:25.420Z,1.70
2022-08-03T20:20:55.467Z,1.50
2022-08-03T20:23:24.370Z,1.80
2022-08-03T20:25:57.484Z,1.60
2022-08-03T20:28:32.429Z,1.70
2022-08-03T20:31:02.198Z,2.00
2022-08-03T20:33:46.121Z,1.63
2022-08-03T20:36:18.834Z,2.15
2022-08-03T20:38:48.074Z,1.90
2022-08-03T20:41:18.669Z,2.13
2022-08-03T20:43:49.525Z,1.77
2022-08-03T20:49:13.061Z,1.88
2022-08-03T20:51:49.761Z,1.67
2022-08-03T20:54:30.951Z,2.28
2022-08-03T20:58:01.039Z,1.63
2022-08-03T21:00:31.532Z,1.80
2022-08-03T21:03:02.149Z,1.48
2022-08-03T21:05:48.320Z,1.67
2022-08-03T21:08:23.155Z,1.92
2022-08-03T21:10:54.758Z,1.60
2022-08-03T21:13:12.468Z,1.70
2022-08-03T21:13:28.214Z,1.67
2022-08-03T21:16:12.810Z,2.00
2022-08-03T21:18:47.499Z,1.67
2022-08-03T21:21:17.862Z,1.80
2022-08-03T21:23:50.759Z,1.73
2022-08-03T21:26:20.423Z,1.83
2022-08-03T21:28:50.585Z,2.28
2022-08-03T21:31:24.635Z,1.80
2022-08-03T21:33:57.622Z,1.90
2022-08-03T21:36:27.398Z,1.80
2022-08-03T21:38:57.999Z,2.10
2022-08-03T21:41:28.970Z,1.83
2022-08-03T21:43:59.235Z,2.00
2022-08-03T21:46:29.177Z,2.30
2022-08-03T21:50:05.027Z,1.98
2022-08-03T21:51:53.719Z,2.00
2022-08-03T21:54:22.659Z,2.00
2022-08-03T21:56:52.477Z,2.10
2022-08-03T21:59:22.031Z,2.63
2022-08-03T22:01:55.433Z,2.30
2022-08-03T22:04:50.723Z,2.17
2022-08-03T22:07:23.760Z,2.10
2022-08-03T22:10:53.085Z,1.95
2022-08-03T22:13:43.191Z,2.10
2022-08-03T22:16:11.167Z,2.08
2022-08-03T22:18:39.753Z,2.10
2022-08-03T22:21:11.661Z,2.13
2022-08-03T22:23:42.409Z,2.17
2022-08-03T22:26:15.081Z,2.10
2022-08-03T22:28:43.744Z,2.03
2022-08-03T22:31:57.187Z,3.53
2022-08-03T22:34:00.197Z,2.08
2022-08-03T22:36:31.080Z,2.55
2022-08-03T22:38:59.890Z,2.38
2022-08-03T22:41:30.185Z,2.40
2022-08-03T22:44:00.005Z,2.10
2022-08-03T22:46:34.237Z,2.17
2022-08-03T22:49:02.364Z,2.72
2022-08-03T22:51:32.301Z,2.20
2022-08-03T22:54:00.346Z,3.08
2022-08-03T22:56:32.991Z,2.20
2022-08-03T22:59:02.762Z,1.92
2022-08-03T23:06:02.188Z,2.38
2022-08-03T23:08:25.632Z,2.03
2022-08-03T23:10:54.274Z,2.05
2022-08-03T23:13:25.808Z,2.53
2022-08-03T23:15:57.909Z,2.25
2022-08-03T23:18:34.089Z,2.05
2022-08-03T23:21:11.232Z,2.90
2022-08-03T23:23:44.585Z,3.40
2022-08-03T23:26:15.416Z,2.50
2022-08-03T23:28:46.437Z,2.17
2022-08-03T23:31:15.310Z,2.60
2022-08-03T23:33:46.182Z,2.90
2022-08-03T23:36:30.904Z,2.15
2022-08-03T23:39:02.971Z,2.40
2022-08-03T23:41:31.112Z,2.55
2022-08-03T23:44:00.654Z,2.20
2022-08-03T23:46:31.508Z,2.88
2022-08-03T23:48:59.877Z,3.13
2022-08-03T23:51:37.681Z,2.35
2022-08-03T23:54:11.386Z,2.90
2022-08-03T23:56:44.732Z,2.70
2022-08-03T23:59:31.206Z,2.50
